ETHC

Celle Airport

Germany
METAR ETHC 210520Z 09001KT 9999 BKN034 17/13 Q1021 BLU BLU
Observed Flight Rules
Aug-21 @ 05:20 UTC (9 hours ago) Visual Flight Rules
Wind Visibility Clouds
90° at 1 knots 10,000+ meters
  • Broken at 3,400' AGL
Temperatures Readings
Current 17°C / 63°F
Dewpoint 13°C / 55°F
Humidity 77%
Altimeter 30.15" Hg
Pressure 1021 hPa
Elevation 52
METAR ETHC 210520Z 09001KT 9999 BKN034 17/13 Q1021 BLU BLU
Observed Flight Rules
Aug-21 @ 05:20 UTC
(9 hours ago)
VFR
Wind Visibility
90° at 1 knots 10,000+ meters
Clouds
  • Broken at 3,400' AGL
Temperature Dewpoint
17°C / 63°F 13°C / 55°F
Humidity Altimeter Pressure
77% 30.15" Hg 1021 hPa